YM Upsurgence — BLHJ — position and weather

sailwx.info

Track history (hours):
 
Tides and Currents Weather Stations Pressure Air Temp Water Temp Dewpoint Dewpoint Depression Visibility Wind Speed Wind Dir Waves Ship Positions

YM Upsurgence

Last reported at 2018-Aug-14 06:30 UTC. Time now 2018-Aug-14 07:00 UTC.
Position N 32°08' W 081°08'.

Length 333 m; draft 11.8 m.

Type: Ship (hazmat cat A). MMSI: 416465000.

Date/timePositionNaut miles runAvg speedWind from/ knotsBaromVisibWave heightAir tempDewpointWater temp
2018-Aug-14 06:30N 32°08' W 081°08'0 0.0
2018-Aug-14 05:54N 32°08' W 081°08'0 0.0
2018-Aug-14 05:24N 32°08' W 081°08'0 0.0
2018-Aug-14 05:00N 32°08' W 081°08'0 0.0
2018-Aug-14 04:30N 32°08' W 081°08'0 0.0
2018-Aug-14 03:42N 32°08' W 081°08'0 0.0
2018-Aug-14 03:24N 32°08' W 081°08'0 0.0
2018-Aug-14 02:48N 32°08' W 081°08'0 0.0
2018-Aug-14 02:30N 32°08' W 081°08'0 0.0
2018-Aug-14 02:00N 32°08' W 081°08'0 0.0
2018-Aug-14 01:30N 32°08' W 081°08'0 0.0
2018-Aug-14 01:00N 32°08' W 081°08'0 0.0
2018-Aug-14 00:30N 32°08' W 081°08'0 0.0
2018-Aug-14 00:00N 32°08' W 081°08'0 0.0
2018-Aug-13 23:30N 32°08' W 081°08'0 0.0
2018-Aug-13 23:00N 32°08' W 081°08'0 0.0
2018-Aug-13 22:30N 32°08' W 081°08'0 0.0
2018-Aug-13 22:00N 32°08' W 081°08'0 0.0
2018-Aug-13 21:30N 32°08' W 081°08'0 0.0
2018-Aug-13 21:00N 32°08' W 081°08'0 0.0
2018-Aug-13 20:30N 32°08' W 081°08'0 0.0
2018-Aug-13 20:00N 32°08' W 081°08'0 0.0
2018-Aug-13 19:30N 32°08' W 081°08'0 0.0
2018-Aug-13 19:00N 32°08' W 081°08'0 0.0
2018-Aug-13 18:30N 32°08' W 081°08'0 0.0
2018-Aug-13 18:00N 32°08' W 081°08'0 0.0
2018-Aug-13 17:30N 32°08' W 081°08'0 0.0
2018-Aug-13 17:00N 32°08' W 081°08'0 0.0
2018-Aug-13 16:24N 32°08' W 081°08'0 0.0
2018-Aug-13 16:00N 32°08' W 081°08'0 0.0
2018-Aug-13 15:30N 32°08' W 081°08'0 0.0
2018-Aug-13 15:01N 32°08' W 081°08'2 3.2
2018-Aug-13 14:30N 32°06' W 081°07'2 4.9
2018-Aug-13 14:01N 32°05' W 081°05'3 5.3
2018-Aug-13 13:31N 32°05' W 081°02'5 9.2
2018-Aug-13 13:01N 32°04' W 080°57'612.1
2018-Aug-13 12:30N 32°02' W 080°50'4 7.1
2018-Aug-13 12:00N 31°59' W 080°47'4 7.2
2018-Aug-13 11:29N 31°58' W 080°43'5 9.8
2018-Aug-13 11:00N 31°56' W 080°38'4 7.7
2018-Aug-13 10:29N 31°53' W 080°34'2010.1
2018-Aug-13 08:31N 31°37' W 080°21'111.5
2018-Aug-13 08:28N 31°36' W 080°20'511.6
2018-Aug-13 08:00N 31°32' W 080°17'611.7
2018-Aug-13 07:29N 31°27' W 080°13'  
2018-Aug-09 07:43N 09°29' W 079°51'416.3
2018-Aug-09 07:30N 09°26' W 079°53'4 8.2
2018-Aug-09 07:01N 09°22' W 079°53'0 0.2
2018-Aug-09 06:29N 09°22' W 079°53'0 0.0
2018-Aug-09 05:58N 09°22' W 079°53'0 0.0
2018-Aug-09 05:28N 09°22' W 079°53'0 0.0
2018-Aug-09 04:58N 09°22' W 079°53'0 0.0
2018-Aug-09 04:29N 09°22' W 079°53'0 0.0
2018-Aug-09 03:58N 09°22' W 079°53'0 0.0
2018-Aug-09 01:16N 09°22' W 079°53'0 0.0
2018-Aug-09 00:59N 09°22' W 079°53'0 0.0
2018-Aug-09 00:29N 09°22' W 079°53'0 0.0
2018-Aug-08 23:59N 09°22' W 079°53'0 0.0
2018-Aug-08 23:28N 09°22' W 079°53'0 0.0
2018-Aug-08 22:59N 09°22' W 079°53'0 0.0
2018-Aug-08 22:28N 09°22' W 079°53'0 0.0
2018-Aug-08 21:58N 09°22' W 079°53'0 0.0
2018-Aug-08 21:28N 09°22' W 079°53'0 0.0
2018-Aug-08 20:59N 09°22' W 079°53'0 0.0
2018-Aug-08 20:29N 09°22' W 079°53'0 0.0
2018-Aug-08 19:58N 09°22' W 079°53'0 0.2
2018-Aug-08 19:31N 09°22' W 079°53'1 2.6
2018-Aug-08 19:01N 09°23' W 079°54'2 4.2
2018-Aug-08 18:31N 09°22' W 079°55'5 6.5
2018-Aug-08 17:45N 09°17' W 079°55'  
Track history (hours):
 
Tides and Currents Weather Stations Pressure Air Temp Water Temp Dewpoint Dewpoint Depression Visibility Wind Speed Wind Dir Waves Ship Positions

YM Upsurgence

Last reported at 2018-Aug-14 06:30 UTC. Time now 2018-Aug-14 07:00 UTC.
Position N 32°08' W 081°08'.

Length 333 m; draft 11.8 m.

Type: Ship (hazmat cat A). MMSI: 416465000.

Date/timePositionNaut miles runAvg speedWind from/ knotsBaromVisibWave heightAir tempDewpointWater temp
2018-Aug-14 06:30N 32°08' W 081°08'0 0.0
2018-Aug-14 05:54N 32°08' W 081°08'0 0.0
2018-Aug-14 05:24N 32°08' W 081°08'0 0.0
2018-Aug-14 05:00N 32°08' W 081°08'0 0.0
2018-Aug-14 04:30N 32°08' W 081°08'0 0.0
2018-Aug-14 03:42N 32°08' W 081°08'0 0.0
2018-Aug-14 03:24N 32°08' W 081°08'0 0.0
2018-Aug-14 02:48N 32°08' W 081°08'0 0.0
2018-Aug-14 02:30N 32°08' W 081°08'0 0.0
2018-Aug-14 02:00N 32°08' W 081°08'0 0.0
2018-Aug-14 01:30N 32°08' W 081°08'0 0.0
2018-Aug-14 01:00N 32°08' W 081°08'0 0.0
2018-Aug-14 00:30N 32°08' W 081°08'0 0.0
2018-Aug-14 00:00N 32°08' W 081°08'0 0.0
2018-Aug-13 23:30N 32°08' W 081°08'0 0.0
2018-Aug-13 23:00N 32°08' W 081°08'0 0.0
2018-Aug-13 22:30N 32°08' W 081°08'0 0.0
2018-Aug-13 22:00N 32°08' W 081°08'0 0.0
2018-Aug-13 21:30N 32°08' W 081°08'0 0.0
2018-Aug-13 21:00N 32°08' W 081°08'0 0.0
2018-Aug-13 20:30N 32°08' W 081°08'0 0.0
2018-Aug-13 20:00N 32°08' W 081°08'0 0.0
2018-Aug-13 19:30N 32°08' W 081°08'0 0.0
2018-Aug-13 19:00N 32°08' W 081°08'0 0.0
2018-Aug-13 18:30N 32°08' W 081°08'0 0.0
2018-Aug-13 18:00N 32°08' W 081°08'0 0.0
2018-Aug-13 17:30N 32°08' W 081°08'0 0.0
2018-Aug-13 17:00N 32°08' W 081°08'0 0.0
2018-Aug-13 16:24N 32°08' W 081°08'0 0.0
2018-Aug-13 16:00N 32°08' W 081°08'0 0.0
2018-Aug-13 15:30N 32°08' W 081°08'0 0.0
2018-Aug-13 15:01N 32°08' W 081°08'2 3.2
2018-Aug-13 14:30N 32°06' W 081°07'2 4.9
2018-Aug-13 14:01N 32°05' W 081°05'3 5.3
2018-Aug-13 13:31N 32°05' W 081°02'5 9.2
2018-Aug-13 13:01N 32°04' W 080°57'612.1
2018-Aug-13 12:30N 32°02' W 080°50'4 7.1
2018-Aug-13 12:00N 31°59' W 080°47'4 7.2
2018-Aug-13 11:29N 31°58' W 080°43'5 9.8
2018-Aug-13 11:00N 31°56' W 080°38'4 7.7
2018-Aug-13 10:29N 31°53' W 080°34'2010.1
2018-Aug-13 08:31N 31°37' W 080°21'111.5
2018-Aug-13 08:28N 31°36' W 080°20'511.6
2018-Aug-13 08:00N 31°32' W 080°17'611.7
2018-Aug-13 07:29N 31°27' W 080°13'  
2018-Aug-09 07:43N 09°29' W 079°51'416.3
2018-Aug-09 07:30N 09°26' W 079°53'4 8.2
2018-Aug-09 07:01N 09°22' W 079°53'0 0.2
2018-Aug-09 06:29N 09°22' W 079°53'0 0.0
2018-Aug-09 05:58N 09°22' W 079°53'0 0.0
2018-Aug-09 05:28N 09°22' W 079°53'0 0.0
2018-Aug-09 04:58N 09°22' W 079°53'0 0.0
2018-Aug-09 04:29N 09°22' W 079°53'0 0.0
2018-Aug-09 03:58N 09°22' W 079°53'0 0.0
2018-Aug-09 01:16N 09°22' W 079°53'0 0.0
2018-Aug-09 00:59N 09°22' W 079°53'0 0.0
2018-Aug-09 00:29N 09°22' W 079°53'0 0.0
2018-Aug-08 23:59N 09°22' W 079°53'0 0.0
2018-Aug-08 23:28N 09°22' W 079°53'0 0.0
2018-Aug-08 22:59N 09°22' W 079°53'0 0.0
2018-Aug-08 22:28N 09°22' W 079°53'0 0.0
2018-Aug-08 21:58N 09°22' W 079°53'0 0.0
2018-Aug-08 21:28N 09°22' W 079°53'0 0.0
2018-Aug-08 20:59N 09°22' W 079°53'0 0.0
2018-Aug-08 20:29N 09°22' W 079°53'0 0.0
2018-Aug-08 19:58N 09°22' W 079°53'0 0.2
2018-Aug-08 19:31N 09°22' W 079°53'1 2.6
2018-Aug-08 19:01N 09°23' W 079°54'2 4.2
2018-Aug-08 18:31N 09°22' W 079°55'5 6.5
2018-Aug-08 17:45N 09°17' W 079°55'  

Dump ship's entire track history